sensor_id;sensor_type;location;lat;lon;timestamp;P1;durP1;ratioP1;P2;durP2;ratioP2
53389;SDS011;39288;42.970;1.524;2022-09-12T00:00:33;0.93;;;0.53;;
53389;SDS011;39288;42.970;1.524;2022-09-12T00:01:34;1.47;;;0.67;;
53389;SDS011;39288;42.970;1.524;2022-09-12T00:02:34;8.23;;;1.13;;
53389;SDS011;39288;42.970;1.524;2022-09-12T00:03:35;4.20;;;0.70;;
53389;SDS011;39288;42.970;1.524;2022-09-12T00:05:43;2.03;;;0.65;;
53389;SDS011;39288;42.970;1.524;2022-09-12T00:06:44;1.77;;;0.70;;
53389;SDS011;39288;42.970;1.524;2022-09-12T00:07:45;2.47;;;0.73;;
53389;SDS011;39288;42.970;1.524;2022-09-12T00:08:45;2.53;;;0.97;;
53389;SDS011;39288;42.970;1.524;2022-09-12T00:09:46;3.03;;;0.70;;
53389;SDS011;39288;42.970;1.524;2022-09-12T00:10:47;3.00;;;0.77;;
53389;SDS011;39288;42.970;1.524;2022-09-12T00:11:47;3.03;;;0.70;;
53389;SDS011;39288;42.970;1.524;2022-09-12T00:12:47;3.57;;;0.80;;
53389;SDS011;39288;42.970;1.524;2022-09-12T00:13:48;3.33;;;0.70;;
53389;SDS011;39288;42.970;1.524;2022-09-12T00:14:49;4.90;;;1.00;;
53389;SDS011;39288;42.970;1.524;2022-09-12T00:15:50;4.77;;;0.80;;
53389;SDS011;39288;42.970;1.524;2022-09-12T00:16:50;4.10;;;0.97;;
53389;SDS011;39288;42.970;1.524;2022-09-12T00:17:50;4.17;;;0.90;;
53389;SDS011;39288;42.970;1.524;2022-09-12T00:18:51;0.83;;;0.63;;
53389;SDS011;39288;42.970;1.524;2022-09-12T00:19:52;1.17;;;0.88;;
53389;SDS011;39288;42.970;1.524;2022-09-12T00:20:53;1.75;;;0.82;;
53389;SDS011;39288;42.970;1.524;2022-09-12T00:21:54;1.70;;;0.90;;
53389;SDS011;39288;42.970;1.524;2022-09-12T00:22:55;5.77;;;0.97;;
53389;SDS011;39288;42.970;1.524;2022-09-12T00:23:55;1.53;;;0.63;;
53389;SDS011;39288;42.970;1.524;2022-09-12T00:24:56;2.40;;;0.80;;
53389;SDS011;39288;42.970;1.524;2022-09-12T00:25:56;3.37;;;0.80;;
53389;SDS011;39288;42.970;1.524;2022-09-12T00:26:57;0.90;;;0.60;;
53389;SDS011;39288;42.970;1.524;2022-09-12T00:27:57;1.27;;;0.80;;
53389;SDS011;39288;42.970;1.524;2022-09-12T00:28:58;2.30;;;0.70;;
53389;SDS011;39288;42.970;1.524;2022-09-12T00:29:59;1.57;;;0.90;;
53389;SDS011;39288;42.970;1.524;2022-09-12T00:31:02;1.20;;;0.80;;
53389;SDS011;39288;42.970;1.524;2022-09-12T00:32:07;0.70;;;0.60;;
53389;SDS011;39288;42.970;1.524;2022-09-12T00:33:07;1.53;;;0.87;;
53389;SDS011;39288;42.970;1.524;2022-09-12T00:34:09;1.75;;;0.60;;
53389;SDS011;39288;42.970;1.524;2022-09-12T00:35:10;3.25;;;0.90;;
53389;SDS011;39288;42.970;1.524;2022-09-12T00:36:11;1.90;;;1.10;;
53389;SDS011;39288;42.970;1.524;2022-09-12T00:37:14;3.08;;;0.90;;
53389;SDS011;39288;42.970;1.524;2022-09-12T00:38:15;1.90;;;0.77;;
53389;SDS011;39288;42.970;1.524;2022-09-12T00:39:16;5.25;;;1.13;;
53389;SDS011;39288;42.970;1.524;2022-09-12T00:40:16;7.30;;;1.10;;
53389;SDS011;39288;42.970;1.524;2022-09-12T00:42:23;2.17;;;0.90;;
53389;SDS011;39288;42.970;1.524;2022-09-12T00:45:30;2.93;;;0.70;;
53389;SDS011;39288;42.970;1.524;2022-09-12T00:46:35;2.50;;;0.70;;
53389;SDS011;39288;42.970;1.524;2022-09-12T00:47:38;1.50;;;0.73;;
53389;SDS011;39288;42.970;1.524;2022-09-12T00:48:40;2.23;;;0.80;;
53389;SDS011;39288;42.970;1.524;2022-09-12T00:49:48;1.85;;;0.75;;
53389;SDS011;39288;42.970;1.524;2022-09-12T00:50:49;2.17;;;1.25;;
53389;SDS011;39288;42.970;1.524;2022-09-12T00:53:14;4.45;;;0.70;;
53389;SDS011;39288;42.970;1.524;2022-09-12T00:54:16;2.00;;;0.93;;
53389;SDS011;39288;42.970;1.524;2022-09-12T00:55:22;1.48;;;0.90;;
53389;SDS011;39288;42.970;1.524;2022-09-12T00:56:25;2.47;;;0.93;;
53389;SDS011;39288;42.970;1.524;2022-09-12T00:57:28;2.25;;;0.93;;
53389;SDS011;39288;42.970;1.524;2022-09-12T00:58:35;1.50;;;0.80;;
53389;SDS011;39288;42.970;1.524;2022-09-12T00:59:44;2.05;;;0.90;;
53389;SDS011;39288;42.970;1.524;2022-09-12T01:00:47;0.90;;;0.70;;
53389;SDS011;39288;42.970;1.524;2022-09-12T01:01:48;2.60;;;0.80;;
53389;SDS011;39288;42.970;1.524;2022-09-12T01:02:55;1.80;;;0.73;;
53389;SDS011;39288;42.970;1.524;2022-09-12T01:03:58;2.20;;;0.90;;
53389;SDS011;39288;42.970;1.524;2022-09-12T01:04:58;3.93;;;1.00;;
53389;SDS011;39288;42.970;1.524;2022-09-12T01:06:10;1.23;;;0.90;;
53389;SDS011;39288;42.970;1.524;2022-09-12T01:07:15;2.10;;;0.80;;
53389;SDS011;39288;42.970;1.524;2022-09-12T01:08:16;1.80;;;0.90;;
53389;SDS011;39288;42.970;1.524;2022-09-12T01:09:18;2.10;;;0.93;;
53389;SDS011;39288;42.970;1.524;2022-09-12T01:10:19;3.20;;;0.93;;
53389;SDS011;39288;42.970;1.524;2022-09-12T01:11:20;3.43;;;0.90;;
53389;SDS011;39288;42.970;1.524;2022-09-12T01:12:21;1.97;;;0.87;;
53389;SDS011;39288;42.970;1.524;2022-09-12T01:13:21;3.20;;;1.07;;
53389;SDS011;39288;42.970;1.524;2022-09-12T01:14:22;1.20;;;0.90;;
53389;SDS011;39288;42.970;1.524;2022-09-12T01:15:23;1.30;;;0.80;;
53389;SDS011;39288;42.970;1.524;2022-09-12T01:16:23;2.47;;;1.10;;
53389;SDS011;39288;42.970;1.524;2022-09-12T01:17:26;2.13;;;0.83;;
53389;SDS011;39288;42.970;1.524;2022-09-12T01:18:54;2.40;;;0.85;;
53389;SDS011;39288;42.970;1.524;2022-09-12T01:20:08;1.85;;;1.15;;
53389;SDS011;39288;42.970;1.524;2022-09-12T01:21:39;2.22;;;1.05;;
53389;SDS011;39288;42.970;1.524;2022-09-12T01:31:06;2.33;;;1.25;;
53389;SDS011;39288;42.970;1.524;2022-09-12T01:34:57;8.32;;;1.25;;
53389;SDS011;39288;42.970;1.524;2022-09-12T01:37:30;3.00;;;1.10;;
53389;SDS011;39288;42.970;1.524;2022-09-12T01:39:00;6.90;;;1.30;;
53389;SDS011;39288;42.970;1.524;2022-09-12T01:40:06;3.40;;;0.95;;
53389;SDS011;39288;42.970;1.524;2022-09-12T01:42:33;1.15;;;0.95;;
53389;SDS011;39288;42.970;1.524;2022-09-12T01:43:58;1.45;;;0.80;;
53389;SDS011;39288;42.970;1.524;2022-09-12T01:46:14;3.67;;;1.02;;
53389;SDS011;39288;42.970;1.524;2022-09-12T01:48:29;4.57;;;1.13;;
53389;SDS011;39288;42.970;1.524;2022-09-12T01:50:55;2.90;;;0.90;;
53389;SDS011;39288;42.970;1.524;2022-09-12T01:52:02;7.32;;;0.90;;
53389;SDS011;39288;42.970;1.524;2022-09-12T01:53:10;5.05;;;1.00;;
53389;SDS011;39288;42.970;1.524;2022-09-12T01:54:16;1.10;;;1.00;;
53389;SDS011;39288;42.970;1.524;2022-09-12T01:56:23;5.40;;;1.10;;
53389;SDS011;39288;42.970;1.524;2022-09-12T01:57:27;1.48;;;1.00;;
53389;SDS011;39288;42.970;1.524;2022-09-12T01:58:37;4.72;;;1.10;;
53389;SDS011;39288;42.970;1.524;2022-09-12T01:59:47;3.50;;;1.20;;
53389;SDS011;39288;42.970;1.524;2022-09-12T02:02:02;3.70;;;1.10;;
53389;SDS011;39288;42.970;1.524;2022-09-12T02:03:08;4.25;;;1.00;;
53389;SDS011;39288;42.970;1.524;2022-09-12T02:04:12;4.10;;;1.30;;
53389;SDS011;39288;42.970;1.524;2022-09-12T02:05:26;4.47;;;1.13;;
53389;SDS011;39288;42.970;1.524;2022-09-12T02:06:31;2.05;;;1.00;;
53389;SDS011;39288;42.970;1.524;2022-09-12T02:07:35;4.55;;;1.25;;
53389;SDS011;39288;42.970;1.524;2022-09-12T02:08:38;2.35;;;0.95;;
53389;SDS011;39288;42.970;1.524;2022-09-12T02:09:51;3.30;;;1.10;;
53389;SDS011;39288;42.970;1.524;2022-09-12T02:10:55;2.00;;;1.20;;
53389;SDS011;39288;42.970;1.524;2022-09-12T02:11:59;4.07;;;1.30;;
53389;SDS011;39288;42.970;1.524;2022-09-12T02:13:04;1.20;;;1.10;;
53389;SDS011;39288;42.970;1.524;2022-09-12T02:14:13;2.50;;;0.90;;
53389;SDS011;39288;42.970;1.524;2022-09-12T02:15:16;2.70;;;1.20;;
53389;SDS011;39288;42.970;1.524;2022-09-12T02:16:21;4.53;;;1.35;;
53389;SDS011;39288;42.970;1.524;2022-09-12T02:17:25;1.95;;;1.00;;
53389;SDS011;39288;42.970;1.524;2022-09-12T02:18:26;1.88;;;1.13;;
53389;SDS011;39288;42.970;1.524;2022-09-12T02:19:31;3.10;;;1.13;;
53389;SDS011;39288;42.970;1.524;2022-09-12T02:20:33;2.42;;;0.85;;
53389;SDS011;39288;42.970;1.524;2022-09-12T02:21:36;3.90;;;1.13;;
53389;SDS011;39288;42.970;1.524;2022-09-12T02:22:39;1.95;;;1.15;;
53389;SDS011;39288;42.970;1.524;2022-09-12T02:23:41;2.03;;;1.15;;
53389;SDS011;39288;42.970;1.524;2022-09-12T02:24:46;3.35;;;1.20;;
53389;SDS011;39288;42.970;1.524;2022-09-12T02:25:50;5.47;;;1.23;;
53389;SDS011;39288;42.970;1.524;2022-09-12T02:26:54;1.30;;;1.13;;
53389;SDS011;39288;42.970;1.524;2022-09-12T02:28:03;3.70;;;1.10;;
53389;SDS011;39288;42.970;1.524;2022-09-12T02:29:10;2.83;;;1.25;;
53389;SDS011;39288;42.970;1.524;2022-09-12T02:30:10;3.37;;;1.10;;
53389;SDS011;39288;42.970;1.524;2022-09-12T02:38:29;1.70;;;1.23;;
53389;SDS011;39288;42.970;1.524;2022-09-12T02:39:34;4.82;;;1.40;;
53389;SDS011;39288;42.970;1.524;2022-09-12T02:40:35;1.60;;;1.10;;
53389;SDS011;39288;42.970;1.524;2022-09-12T02:41:36;4.28;;;1.75;;
53389;SDS011;39288;42.970;1.524;2022-09-12T02:42:37;6.13;;;1.20;;
53389;SDS011;39288;42.970;1.524;2022-09-12T02:43:37;2.90;;;1.30;;
53389;SDS011;39288;42.970;1.524;2022-09-12T02:44:39;2.83;;;1.20;;
53389;SDS011;39288;42.970;1.524;2022-09-12T02:45:40;2.27;;;1.10;;
53389;SDS011;39288;42.970;1.524;2022-09-12T02:46:45;1.97;;;1.10;;
53389;SDS011;39288;42.970;1.524;2022-09-12T02:47:48;2.17;;;1.10;;
53389;SDS011;39288;42.970;1.524;2022-09-12T02:48:51;1.55;;;1.15;;
53389;SDS011;39288;42.970;1.524;2022-09-12T02:49:52;1.83;;;1.38;;
53389;SDS011;39288;42.970;1.524;2022-09-12T02:50:53;1.70;;;1.20;;
53389;SDS011;39288;42.970;1.524;2022-09-12T02:51:54;2.20;;;1.10;;
53389;SDS011;39288;42.970;1.524;2022-09-12T02:52:54;2.43;;;1.40;;
53389;SDS011;39288;42.970;1.524;2022-09-12T02:53:58;2.05;;;1.20;;
53389;SDS011;39288;42.970;1.524;2022-09-12T02:54:59;2.37;;;1.07;;
53389;SDS011;39288;42.970;1.524;2022-09-12T02:56:01;1.73;;;1.02;;
53389;SDS011;39288;42.970;1.524;2022-09-12T02:57:04;6.03;;;1.52;;
53389;SDS011;39288;42.970;1.524;2022-09-12T02:58:16;2.05;;;1.25;;
53389;SDS011;39288;42.970;1.524;2022-09-12T02:59:20;2.80;;;1.02;;
53389;SDS011;39288;42.970;1.524;2022-09-12T03:00:22;1.83;;;1.10;;
53389;SDS011;39288;42.970;1.524;2022-09-12T03:01:27;3.50;;;1.30;;
53389;SDS011;39288;42.970;1.524;2022-09-12T03:08:45;3.08;;;1.10;;
53389;SDS011;39288;42.970;1.524;2022-09-12T03:17:54;6.28;;;1.30;;
53389;SDS011;39288;42.970;1.524;2022-09-12T03:20:21;4.00;;;1.35;;
53389;SDS011;39288;42.970;1.524;2022-09-12T03:21:51;3.13;;;1.13;;
53389;SDS011;39288;42.970;1.524;2022-09-12T03:22:58;5.32;;;1.42;;
53389;SDS011;39288;42.970;1.524;2022-09-12T03:25:42;3.80;;;1.45;;
53389;SDS011;39288;42.970;1.524;2022-09-12T03:26:47;2.20;;;1.40;;
53389;SDS011;39288;42.970;1.524;2022-09-12T03:27:57;2.53;;;1.15;;
53389;SDS011;39288;42.970;1.524;2022-09-12T03:28:59;4.22;;;1.52;;
53389;SDS011;39288;42.970;1.524;2022-09-12T03:30:04;1.95;;;1.27;;
53389;SDS011;39288;42.970;1.524;2022-09-12T03:31:15;3.47;;;1.10;;
53389;SDS011;39288;42.970;1.524;2022-09-12T03:32:16;2.75;;;1.30;;
53389;SDS011;39288;42.970;1.524;2022-09-12T03:33:18;3.90;;;1.60;;
53389;SDS011;39288;42.970;1.524;2022-09-12T03:34:23;3.22;;;1.42;;
53389;SDS011;39288;42.970;1.524;2022-09-12T03:35:25;3.35;;;1.27;;
53389;SDS011;39288;42.970;1.524;2022-09-12T03:36:26;5.20;;;1.63;;
53389;SDS011;39288;42.970;1.524;2022-09-12T03:37:28;5.38;;;1.25;;
53389;SDS011;39288;42.970;1.524;2022-09-12T03:38:29;4.93;;;1.73;;
53389;SDS011;39288;42.970;1.524;2022-09-12T03:39:29;2.07;;;1.20;;
53389;SDS011;39288;42.970;1.524;2022-09-12T03:40:30;3.20;;;1.30;;
53389;SDS011;39288;42.970;1.524;2022-09-12T03:41:30;3.30;;;1.40;;
53389;SDS011;39288;42.970;1.524;2022-09-12T03:42:31;3.47;;;1.23;;
53389;SDS011;39288;42.970;1.524;2022-09-12T03:43:31;3.53;;;1.43;;
53389;SDS011;39288;42.970;1.524;2022-09-12T03:44:32;6.23;;;1.40;;
53389;SDS011;39288;42.970;1.524;2022-09-12T03:45:33;4.10;;;1.47;;
53389;SDS011;39288;42.970;1.524;2022-09-12T03:46:34;6.22;;;1.73;;
53389;SDS011;39288;42.970;1.524;2022-09-12T03:47:35;4.30;;;1.70;;
53389;SDS011;39288;42.970;1.524;2022-09-12T03:48:35;3.70;;;1.40;;
53389;SDS011;39288;42.970;1.524;2022-09-12T03:49:36;4.03;;;1.50;;
53389;SDS011;39288;42.970;1.524;2022-09-12T03:50:36;5.20;;;1.40;;
53389;SDS011;39288;42.970;1.524;2022-09-12T03:51:37;3.33;;;1.27;;
53389;SDS011;39288;42.970;1.524;2022-09-12T03:52:38;4.63;;;1.30;;
53389;SDS011;39288;42.970;1.524;2022-09-12T03:53:39;3.27;;;1.70;;
53389;SDS011;39288;42.970;1.524;2022-09-12T03:54:39;3.23;;;1.57;;
53389;SDS011;39288;42.970;1.524;2022-09-12T03:55:40;2.97;;;1.20;;
53389;SDS011;39288;42.970;1.524;2022-09-12T03:56:40;2.97;;;1.33;;
53389;SDS011;39288;42.970;1.524;2022-09-12T03:57:40;5.13;;;1.80;;
53389;SDS011;39288;42.970;1.524;2022-09-12T03:58:41;2.80;;;1.43;;
53389;SDS011;39288;42.970;1.524;2022-09-12T03:59:41;3.07;;;1.43;;
53389;SDS011;39288;42.970;1.524;2022-09-12T04:00:42;4.63;;;1.30;;
53389;SDS011;39288;42.970;1.524;2022-09-12T04:01:43;3.27;;;1.57;;
53389;SDS011;39288;42.970;1.524;2022-09-12T04:02:43;2.60;;;1.30;;
53389;SDS011;39288;42.970;1.524;2022-09-12T04:03:45;5.50;;;1.40;;
53389;SDS011;39288;42.970;1.524;2022-09-12T04:04:47;3.90;;;1.88;;
53389;SDS011;39288;42.970;1.524;2022-09-12T04:05:47;3.20;;;1.37;;
53389;SDS011;39288;42.970;1.524;2022-09-12T04:06:48;2.17;;;1.40;;
53389;SDS011;39288;42.970;1.524;2022-09-12T04:07:48;3.70;;;1.47;;
53389;SDS011;39288;42.970;1.524;2022-09-12T04:08:50;4.70;;;1.30;;
53389;SDS011;39288;42.970;1.524;2022-09-12T04:09:52;5.25;;;1.65;;
53389;SDS011;39288;42.970;1.524;2022-09-12T04:11:54;2.53;;;1.30;;
53389;SDS011;39288;42.970;1.524;2022-09-12T04:12:54;4.10;;;1.43;;
53389;SDS011;39288;42.970;1.524;2022-09-12T04:13:55;2.57;;;1.27;;
53389;SDS011;39288;42.970;1.524;2022-09-12T04:14:55;3.40;;;1.30;;
53389;SDS011;39288;42.970;1.524;2022-09-12T04:15:56;5.27;;;1.57;;
53389;SDS011;39288;42.970;1.524;2022-09-12T04:16:58;5.70;;;1.55;;
53389;SDS011;39288;42.970;1.524;2022-09-12T04:17:59;11.67;;;1.70;;
53389;SDS011;39288;42.970;1.524;2022-09-12T04:18:59;3.53;;;1.57;;
53389;SDS011;39288;42.970;1.524;2022-09-12T04:20:00;3.03;;;1.70;;
53389;SDS011;39288;42.970;1.524;2022-09-12T04:21:04;5.53;;;1.60;;
53389;SDS011;39288;42.970;1.524;2022-09-12T04:22:05;3.88;;;1.50;;
53389;SDS011;39288;42.970;1.524;2022-09-12T04:23:08;3.60;;;1.55;;
53389;SDS011;39288;42.970;1.524;2022-09-12T04:24:09;3.50;;;1.50;;
53389;SDS011;39288;42.970;1.524;2022-09-12T04:25:09;1.63;;;1.30;;
53389;SDS011;39288;42.970;1.524;2022-09-12T04:26:11;2.85;;;1.60;;
53389;SDS011;39288;42.970;1.524;2022-09-12T04:27:12;4.20;;;1.85;;
53389;SDS011;39288;42.970;1.524;2022-09-12T04:28:13;3.70;;;1.50;;
53389;SDS011;39288;42.970;1.524;2022-09-12T04:29:13;4.43;;;1.67;;
53389;SDS011;39288;42.970;1.524;2022-09-12T04:30:14;3.90;;;1.30;;
53389;SDS011;39288;42.970;1.524;2022-09-12T04:31:15;3.93;;;1.70;;
53389;SDS011;39288;42.970;1.524;2022-09-12T04:32:17;8.73;;;1.90;;
53389;SDS011;39288;42.970;1.524;2022-09-12T04:33:17;2.30;;;1.27;;
53389;SDS011;39288;42.970;1.524;2022-09-12T04:34:18;2.03;;;1.23;;
53389;SDS011;39288;42.970;1.524;2022-09-12T04:35:18;2.30;;;1.60;;
53389;SDS011;39288;42.970;1.524;2022-09-12T04:36:19;4.00;;;1.50;;
53389;SDS011;39288;42.970;1.524;2022-09-12T04:37:19;4.40;;;1.30;;
53389;SDS011;39288;42.970;1.524;2022-09-12T04:38:21;3.00;;;1.73;;
53389;SDS011;39288;42.970;1.524;2022-09-12T04:39:21;4.03;;;1.57;;
53389;SDS011;39288;42.970;1.524;2022-09-12T04:40:22;3.80;;;1.30;;
53389;SDS011;39288;42.970;1.524;2022-09-12T04:41:23;6.83;;;1.70;;
53389;SDS011;39288;42.970;1.524;2022-09-12T04:42:25;3.95;;;1.40;;
53389;SDS011;39288;42.970;1.524;2022-09-12T04:43:26;7.03;;;2.30;;
53389;SDS011;39288;42.970;1.524;2022-09-12T04:44:26;4.13;;;1.37;;
53389;SDS011;39288;42.970;1.524;2022-09-12T04:45:27;1.63;;;1.13;;
53389;SDS011;39288;42.970;1.524;2022-09-12T04:46:32;3.40;;;1.37;;
53389;SDS011;39288;42.970;1.524;2022-09-12T04:47:35;5.10;;;1.92;;
53389;SDS011;39288;42.970;1.524;2022-09-12T04:48:35;3.60;;;1.80;;
53389;SDS011;39288;42.970;1.524;2022-09-12T04:49:37;6.93;;;1.42;;
53389;SDS011;39288;42.970;1.524;2022-09-12T04:50:37;4.73;;;1.57;;
53389;SDS011;39288;42.970;1.524;2022-09-12T04:51:39;1.77;;;1.43;;
53389;SDS011;39288;42.970;1.524;2022-09-12T04:52:40;4.38;;;1.55;;
53389;SDS011;39288;42.970;1.524;2022-09-12T04:53:41;5.33;;;1.57;;
53389;SDS011;39288;42.970;1.524;2022-09-12T04:54:42;4.60;;;1.63;;
53389;SDS011;39288;42.970;1.524;2022-09-12T04:55:42;6.27;;;1.50;;
53389;SDS011;39288;42.970;1.524;2022-09-12T04:56:44;4.23;;;1.73;;
53389;SDS011;39288;42.970;1.524;2022-09-12T04:57:45;4.70;;;1.85;;
53389;SDS011;39288;42.970;1.524;2022-09-12T04:58:48;7.23;;;1.90;;
53389;SDS011;39288;42.970;1.524;2022-09-12T04:59:48;6.07;;;1.73;;
53389;SDS011;39288;42.970;1.524;2022-09-12T05:00:49;2.00;;;1.23;;
53389;SDS011;39288;42.970;1.524;2022-09-12T05:01:49;3.13;;;1.50;;
53389;SDS011;39288;42.970;1.524;2022-09-12T05:02:50;4.55;;;1.33;;
53389;SDS011;39288;42.970;1.524;2022-09-12T05:03:51;3.97;;;1.50;;
53389;SDS011;39288;42.970;1.524;2022-09-12T05:04:51;2.63;;;1.40;;
53389;SDS011;39288;42.970;1.524;2022-09-12T05:05:53;2.97;;;1.42;;
53389;SDS011;39288;42.970;1.524;2022-09-12T05:06:53;5.00;;;1.90;;
53389;SDS011;39288;42.970;1.524;2022-09-12T05:07:54;3.83;;;1.93;;
53389;SDS011;39288;42.970;1.524;2022-09-12T05:08:54;1.40;;;1.20;;
53389;SDS011;39288;42.970;1.524;2022-09-12T05:09:56;3.42;;;1.27;;
53389;SDS011;39288;42.970;1.524;2022-09-12T05:11:00;3.03;;;1.40;;
53389;SDS011;39288;42.970;1.524;2022-09-12T05:12:05;2.35;;;1.23;;
53389;SDS011;39288;42.970;1.524;2022-09-12T05:13:07;2.83;;;1.60;;
53389;SDS011;39288;42.970;1.524;2022-09-12T05:14:09;3.70;;;1.70;;
53389;SDS011;39288;42.970;1.524;2022-09-12T05:16:11;4.18;;;1.73;;
53389;SDS011;39288;42.970;1.524;2022-09-12T05:17:14;2.33;;;1.50;;
53389;SDS011;39288;42.970;1.524;2022-09-12T05:18:14;3.90;;;1.40;;
53389;SDS011;39288;42.970;1.524;2022-09-12T05:19:15;3.40;;;2.00;;
53389;SDS011;39288;42.970;1.524;2022-09-12T05:20:15;3.87;;;2.00;;
53389;SDS011;39288;42.970;1.524;2022-09-12T05:21:17;5.03;;;1.70;;
53389;SDS011;39288;42.970;1.524;2022-09-12T05:22:18;4.45;;;1.58;;
53389;SDS011;39288;42.970;1.524;2022-09-12T05:23:19;3.37;;;1.40;;
53389;SDS011;39288;42.970;1.524;2022-09-12T05:24:20;3.93;;;1.37;;
53389;SDS011;39288;42.970;1.524;2022-09-12T05:25:21;3.30;;;1.40;;
53389;SDS011;39288;42.970;1.524;2022-09-12T05:26:22;2.27;;;1.20;;
53389;SDS011;39288;42.970;1.524;2022-09-12T05:27:22;3.58;;;1.83;;
53389;SDS011;39288;42.970;1.524;2022-09-12T05:28:24;2.47;;;1.87;;
53389;SDS011;39288;42.970;1.524;2022-09-12T05:29:27;2.60;;;1.48;;
53389;SDS011;39288;42.970;1.524;2022-09-12T05:30:28;4.43;;;1.83;;
53389;SDS011;39288;42.970;1.524;2022-09-12T05:31:29;4.50;;;1.30;;
53389;SDS011;39288;42.970;1.524;2022-09-12T05:32:30;3.13;;;1.60;;
53389;SDS011;39288;42.970;1.524;2022-09-12T05:33:31;4.53;;;1.55;;
53389;SDS011;39288;42.970;1.524;2022-09-12T05:34:33;5.47;;;1.67;;
53389;SDS011;39288;42.970;1.524;2022-09-12T05:35:34;4.33;;;1.57;;
53389;SDS011;39288;42.970;1.524;2022-09-12T05:36:36;4.70;;;2.10;;
53389;SDS011;39288;42.970;1.524;2022-09-12T05:37:37;5.10;;;1.83;;
53389;SDS011;39288;42.970;1.524;2022-09-12T05:38:39;7.63;;;2.05;;
53389;SDS011;39288;42.970;1.524;2022-09-12T05:39:39;4.67;;;1.23;;
53389;SDS011;39288;42.970;1.524;2022-09-12T05:40:40;2.30;;;1.50;;
53389;SDS011;39288;42.970;1.524;2022-09-12T05:41:40;6.17;;;1.50;;
53389;SDS011;39288;42.970;1.524;2022-09-12T05:42:41;5.70;;;1.93;;
53389;SDS011;39288;42.970;1.524;2022-09-12T05:43:44;5.05;;;1.60;;
53389;SDS011;39288;42.970;1.524;2022-09-12T05:44:45;4.82;;;1.70;;
53389;SDS011;39288;42.970;1.524;2022-09-12T05:45:46;4.33;;;1.50;;
53389;SDS011;39288;42.970;1.524;2022-09-12T05:46:46;2.43;;;1.60;;
53389;SDS011;39288;42.970;1.524;2022-09-12T05:47:50;3.22;;;1.63;;
53389;SDS011;39288;42.970;1.524;2022-09-12T05:48:50;3.27;;;1.50;;
53389;SDS011;39288;42.970;1.524;2022-09-12T05:49:52;4.65;;;1.63;;
53389;SDS011;39288;42.970;1.524;2022-09-12T05:50:57;3.43;;;1.57;;
53389;SDS011;39288;42.970;1.524;2022-09-12T05:52:00;1.70;;;1.50;;
53389;SDS011;39288;42.970;1.524;2022-09-12T05:54:03;8.30;;;1.63;;
53389;SDS011;39288;42.970;1.524;2022-09-12T05:55:05;5.53;;;1.92;;
53389;SDS011;39288;42.970;1.524;2022-09-12T05:56:12;2.33;;;1.50;;
53389;SDS011;39288;42.970;1.524;2022-09-12T05:57:14;6.10;;;2.10;;
53389;SDS011;39288;42.970;1.524;2022-09-12T05:58:14;4.90;;;1.70;;
53389;SDS011;39288;42.970;1.524;2022-09-12T05:59:16;2.73;;;1.80;;
53389;SDS011;39288;42.970;1.524;2022-09-12T06:00:18;3.60;;;1.50;;
53389;SDS011;39288;42.970;1.524;2022-09-12T06:02:20;4.03;;;1.45;;
53389;SDS011;39288;42.970;1.524;2022-09-12T06:03:20;1.30;;;1.20;;
53389;SDS011;39288;42.970;1.524;2022-09-12T06:04:21;3.40;;;1.57;;
53389;SDS011;39288;42.970;1.524;2022-09-12T06:05:22;2.50;;;1.50;;
53389;SDS011;39288;42.970;1.524;2022-09-12T06:06:23;5.25;;;1.48;;
53389;SDS011;39288;42.970;1.524;2022-09-12T06:07:24;4.00;;;1.60;;
53389;SDS011;39288;42.970;1.524;2022-09-12T06:08:25;4.43;;;1.60;;
53389;SDS011;39288;42.970;1.524;2022-09-12T06:09:25;4.57;;;1.60;;
53389;SDS011;39288;42.970;1.524;2022-09-12T06:10:27;3.60;;;1.50;;
53389;SDS011;39288;42.970;1.524;2022-09-12T06:11:28;7.00;;;1.67;;
53389;SDS011;39288;42.970;1.524;2022-09-12T06:12:32;1.98;;;1.20;;
53389;SDS011;39288;42.970;1.524;2022-09-12T06:13:33;2.17;;;1.60;;
53389;SDS011;39288;42.970;1.524;2022-09-12T06:14:35;6.95;;;1.70;;
53389;SDS011;39288;42.970;1.524;2022-09-12T06:15:36;2.87;;;1.13;;
53389;SDS011;39288;42.970;1.524;2022-09-12T06:16:37;3.57;;;1.43;;
53389;SDS011;39288;42.970;1.524;2022-09-12T06:17:37;6.15;;;1.95;;
53389;SDS011;39288;42.970;1.524;2022-09-12T06:18:38;3.50;;;1.30;;
53389;SDS011;39288;42.970;1.524;2022-09-12T06:19:40;7.03;;;1.35;;
53389;SDS011;39288;42.970;1.524;2022-09-12T06:20:40;3.53;;;1.43;;
53389;SDS011;39288;42.970;1.524;2022-09-12T06:21:41;2.43;;;1.13;;
53389;SDS011;39288;42.970;1.524;2022-09-12T06:22:42;4.57;;;1.90;;
53389;SDS011;39288;42.970;1.524;2022-09-12T06:23:43;7.80;;;2.03;;
53389;SDS011;39288;42.970;1.524;2022-09-12T06:24:45;2.92;;;1.40;;
53389;SDS011;39288;42.970;1.524;2022-09-12T06:25:46;1.90;;;1.23;;
53389;SDS011;39288;42.970;1.524;2022-09-12T06:26:48;2.97;;;1.50;;
53389;SDS011;39288;42.970;1.524;2022-09-12T06:27:51;5.65;;;1.52;;
53389;SDS011;39288;42.970;1.524;2022-09-12T06:28:53;3.33;;;1.70;;
53389;SDS011;39288;42.970;1.524;2022-09-12T06:29:54;5.20;;;1.52;;
53389;SDS011;39288;42.970;1.524;2022-09-12T06:31:00;4.23;;;1.37;;
53389;SDS011;39288;42.970;1.524;2022-09-12T06:32:04;2.25;;;1.50;;
53389;SDS011;39288;42.970;1.524;2022-09-12T06:33:05;4.80;;;1.55;;
53389;SDS011;39288;42.970;1.524;2022-09-12T06:34:07;2.60;;;1.50;;
53389;SDS011;39288;42.970;1.524;2022-09-12T06:35:09;2.60;;;1.10;;
53389;SDS011;39288;42.970;1.524;2022-09-12T06:36:16;1.87;;;1.53;;
53389;SDS011;39288;42.970;1.524;2022-09-12T06:37:18;2.72;;;1.50;;
53389;SDS011;39288;42.970;1.524;2022-09-12T06:38:19;4.97;;;1.20;;
53389;SDS011;39288;42.970;1.524;2022-09-12T06:39:20;3.10;;;1.30;;
53389;SDS011;39288;42.970;1.524;2022-09-12T06:40:21;4.32;;;1.80;;
53389;SDS011;39288;42.970;1.524;2022-09-12T06:41:22;5.90;;;1.27;;
53389;SDS011;39288;42.970;1.524;2022-09-12T06:42:23;4.90;;;1.40;;
53389;SDS011;39288;42.970;1.524;2022-09-12T06:43:24;5.40;;;1.53;;
53389;SDS011;39288;42.970;1.524;2022-09-12T06:44:24;3.27;;;1.40;;
53389;SDS011;39288;42.970;1.524;2022-09-12T06:45:25;3.27;;;1.10;;
53389;SDS011;39288;42.970;1.524;2022-09-12T06:46:25;2.80;;;1.37;;
53389;SDS011;39288;42.970;1.524;2022-09-12T06:47:26;4.32;;;1.65;;
53389;SDS011;39288;42.970;1.524;2022-09-12T06:48:27;4.00;;;1.40;;
53389;SDS011;39288;42.970;1.524;2022-09-12T06:49:28;3.77;;;1.37;;
53389;SDS011;39288;42.970;1.524;2022-09-12T06:50:30;3.63;;;1.38;;
53389;SDS011;39288;42.970;1.524;2022-09-12T06:51:30;3.13;;;1.37;;
53389;SDS011;39288;42.970;1.524;2022-09-12T06:52:31;4.17;;;1.70;;
53389;SDS011;39288;42.970;1.524;2022-09-12T06:53:32;3.43;;;1.00;;
53389;SDS011;39288;42.970;1.524;2022-09-12T06:54:33;4.88;;;1.67;;
53389;SDS011;39288;42.970;1.524;2022-09-12T06:55:33;2.80;;;1.40;;
53389;SDS011;39288;42.970;1.524;2022-09-12T06:56:34;8.47;;;1.93;;
53389;SDS011;39288;42.970;1.524;2022-09-12T06:57:35;2.63;;;1.53;;
53389;SDS011;39288;42.970;1.524;2022-09-12T06:58:37;3.05;;;2.10;;
53389;SDS011;39288;42.970;1.524;2022-09-12T06:59:38;7.72;;;1.55;;
53389;SDS011;39288;42.970;1.524;2022-09-12T07:00:39;2.53;;;1.50;;
53389;SDS011;39288;42.970;1.524;2022-09-12T07:01:40;2.70;;;1.23;;
53389;SDS011;39288;42.970;1.524;2022-09-12T07:02:40;3.63;;;1.73;;
53389;SDS011;39288;42.970;1.524;2022-09-12T07:03:41;7.27;;;2.30;;
53389;SDS011;39288;42.970;1.524;2022-09-12T07:04:43;4.97;;;1.80;;
53389;SDS011;39288;42.970;1.524;2022-09-12T07:05:46;4.93;;;1.07;;
53389;SDS011;39288;42.970;1.524;2022-09-12T07:06:47;6.63;;;1.30;;
53389;SDS011;39288;42.970;1.524;2022-09-12T07:07:47;2.97;;;1.60;;
53389;SDS011;39288;42.970;1.524;2022-09-12T07:08:48;5.07;;;1.50;;
53389;SDS011;39288;42.970;1.524;2022-09-12T07:09:49;4.13;;;1.00;;
53389;SDS011;39288;42.970;1.524;2022-09-12T07:10:49;4.47;;;1.40;;